Meteorológiai információk azoknak akik tudják olvasni.

METAR = LHBP 190400Z 05002KT CAVOK M08/M09 Q1033 NOSIG

9 órás TAF = TAF TAF LHBP 242330Z 2423/2424 30008KT CAVOK BECMG 2506/2509 24010KT OVC030 TEMPO 2509/2515 24015G25KT 8000 -RA BKN013 OVC025 BECMG 2515/2518 30008KT CAVOK

24 órás TAF = TAF TAF LHBP 181715Z 1818/1918 32008KT CAVOK BECMG 1820/1822 VRB03KT TEMPO 1903/1907 FZMIFG BECMG 1910/1912 20005KT BECMG 1915/1917 14005KT

ÁLLOMÁS.................... LHBP
ÉSZLELÉS................... Wed Jan 19, 05:00 CET
MOST....................... Wed Jan 19, 05:09 CET
IDŐ........................ 9 perccel ezelőtt
SZÉL....................... ÉK irányból 2 csomó
LÁTÁSTÁVOLSÁG.............. 10 km vagy több
FELHŐZET................... jelentős felhőzet nincs
HŐMÉRSÉKLET................ 18°F (-8°C)
HARMATPONT................. 16°F (-9°C)
PÁRATARTALOM............... 93%
LÉGNYOMÁS.................. 1033 hPa (30.5 in Hg)

További információ LHBP állomásról

Meteor információ kérése:        állomásról.    

 

www.tothgeza.hu

 

English version
Copyright © 2003-2022 Tóth Géza Minden jog fenntartva.